createdAt,value
2023-03-17T00:02:10.672Z,100445.69
2023-03-17T00:04:38.400Z,100439.19
2023-03-17T00:07:05.720Z,100439.78
2023-03-17T00:09:32.112Z,100441.97
2023-03-17T00:11:58.507Z,100446.81
2023-03-17T00:14:25.009Z,100434.88
2023-03-17T00:16:52.782Z,100429.34
2023-03-17T00:19:24.042Z,100425.25
2023-03-17T00:21:51.729Z,100430.84
2023-03-17T00:24:18.126Z,100433.41
2023-03-17T00:26:44.510Z,100431.06
2023-03-17T00:29:10.956Z,100438.91
2023-03-17T00:31:38.386Z,100432.88
2023-03-17T00:34:04.952Z,100436.56
2023-03-17T00:36:33.488Z,100433.59
2023-03-17T00:39:01.393Z,100436.31
2023-03-17T00:41:27.857Z,100436.69
2023-03-17T00:43:54.220Z,100439.16
2023-03-17T00:46:24.301Z,100425.56
2023-03-17T00:48:50.933Z,100427.56
2023-03-17T00:51:17.287Z,100426.03
2023-03-17T00:53:44.093Z,100424.13
2023-03-17T00:56:15.011Z,100413.22
2023-03-17T00:58:41.713Z,100419.66
2023-03-17T01:01:08.219Z,100407.91
2023-03-17T01:03:34.876Z,100406.41
2023-03-17T01:06:03.004Z,100407.00
2023-03-17T01:08:30.201Z,100401.81
2023-03-17T01:10:57.026Z,100402.44
2023-03-17T01:13:25.165Z,100403.72
2023-03-17T01:15:52.408Z,100401.47
2023-03-17T01:18:21.692Z,100397.53
2023-03-17T01:20:49.183Z,100400.16
2023-03-17T01:23:15.914Z,100415.59
2023-03-17T01:25:43.523Z,100414.28
2023-03-17T01:28:12.878Z,100410.91
2023-03-17T01:30:41.049Z,100420.88
2023-03-17T01:33:09.053Z,100413.50
2023-03-17T01:35:37.304Z,100430.38
2023-03-17T01:38:04.628Z,100425.81
2023-03-17T01:40:33.251Z,100412.31
2023-03-17T01:43:03.795Z,100413.59
2023-03-17T01:46:19.078Z,100402.00
2023-03-17T01:48:54.632Z,100398.66
2023-03-17T01:51:25.114Z,100380.97
2023-03-17T01:53:52.460Z,100380.81
2023-03-17T01:56:19.435Z,100381.94
2023-03-17T01:58:49.502Z,100376.16
2023-03-17T02:01:15.943Z,100372.19
2023-03-17T02:03:42.631Z,100362.91
2023-03-17T02:06:11.254Z,100351.44
2023-03-17T02:08:37.633Z,100368.06
2023-03-17T02:11:04.714Z,100376.28
2023-03-17T02:13:31.509Z,100378.16
2023-03-17T02:15:57.869Z,100380.38
2023-03-17T02:18:24.275Z,100383.81
2023-03-17T02:21:23.468Z,100383.56
2023-03-17T02:23:51.288Z,100379.44
2023-03-17T02:26:19.640Z,100379.41
2023-03-17T02:28:46.219Z,100389.06
2023-03-17T02:31:12.675Z,100397.47
2023-03-17T02:33:39.088Z,100386.34
2023-03-17T02:36:06.125Z,100391.97
2023-03-17T02:38:32.537Z,100388.84
2023-03-17T02:41:00.255Z,100397.84
2023-03-17T02:43:26.663Z,100400.53
2023-03-17T02:45:53.075Z,100392.50
2023-03-17T02:48:19.523Z,100383.31
2023-03-17T02:50:46.049Z,100383.13
2023-03-17T02:53:12.385Z,100377.59
2023-03-17T02:55:38.735Z,100373.56
2023-03-17T02:58:06.514Z,100374.72
2023-03-17T03:00:33.027Z,100380.25
2023-03-17T03:02:59.504Z,100382.09
2023-03-17T03:05:26.413Z,100369.97
2023-03-17T03:07:52.823Z,100362.84
2023-03-17T03:10:19.317Z,100367.97
2023-03-17T03:12:45.785Z,100364.16
2023-03-17T03:15:13.719Z,100367.41
2023-03-17T03:17:40.103Z,100371.41
2023-03-17T03:20:07.199Z,100374.16
2023-03-17T03:22:33.569Z,100375.47
2023-03-17T03:24:59.942Z,100372.44
2023-03-17T03:27:26.389Z,100378.72
2023-03-17T03:29:52.757Z,100387.44
2023-03-17T03:32:20.461Z,100379.19
2023-03-17T03:34:46.853Z,100376.06
2023-03-17T03:37:13.239Z,100377.03
2023-03-17T03:39:39.607Z,100370.41
2023-03-17T03:42:06.359Z,100369.53
2023-03-17T03:44:32.936Z,100363.63
2023-03-17T03:46:59.302Z,100367.28
2023-03-17T03:49:27.023Z,100370.91
2023-03-17T03:51:53.445Z,100361.28
2023-03-17T03:54:19.933Z,100362.72
2023-03-17T03:56:46.357Z,100349.97
2023-03-17T03:59:12.716Z,100347.44
2023-03-17T04:01:39.088Z,100329.66
2023-03-17T04:04:05.484Z,100325.03
2023-03-17T04:06:33.182Z,100319.75
2023-03-17T04:08:59.548Z,100310.34
2023-03-17T04:11:25.969Z,100303.91
2023-03-17T04:13:52.337Z,100309.94
2023-03-17T04:16:18.792Z,100318.41
2023-03-17T04:18:45.240Z,100317.31
2023-03-17T04:21:11.619Z,100318.81
2023-03-17T04:23:39.296Z,100317.63
2023-03-17T04:26:05.713Z,100303.28
2023-03-17T04:28:32.046Z,100307.88
2023-03-17T04:30:58.402Z,100313.38
2023-03-17T04:33:24.856Z,100309.03
2023-03-17T04:35:51.337Z,100301.56
2023-03-17T04:38:17.727Z,100305.78
2023-03-17T04:40:45.797Z,100307.44
2023-03-17T04:43:12.194Z,100303.50
2023-03-17T04:45:38.749Z,100295.41
2023-03-17T04:48:06.185Z,100296.34
2023-03-17T04:50:33.124Z,100302.44
2023-03-17T04:52:59.775Z,100298.97
2023-03-17T04:55:26.293Z,100297.22
2023-03-17T04:57:54.065Z,100298.44
2023-03-17T05:00:21.070Z,100304.22
2023-03-17T05:02:47.610Z,100306.53
2023-03-17T05:05:13.969Z,100295.28
2023-03-17T05:07:40.328Z,100297.84
2023-03-17T05:10:07.745Z,100296.47
2023-03-17T05:12:34.110Z,100294.09
2023-03-17T05:15:01.829Z,100297.81
2023-03-17T05:17:28.196Z,100300.91
2023-03-17T05:19:54.555Z,100291.66
2023-03-17T05:22:20.922Z,100295.16
2023-03-17T05:24:47.369Z,100297.00
2023-03-17T05:27:13.851Z,100297.19
2023-03-17T05:29:40.262Z,100297.94
2023-03-17T05:32:08.039Z,100299.53
2023-03-17T05:34:34.413Z,100295.25
2023-03-17T05:37:00.776Z,100285.50
2023-03-17T05:39:27.164Z,100276.81
2023-03-17T05:41:53.512Z,100281.63
2023-03-17T05:44:19.861Z,100290.41
2023-03-17T05:46:46.249Z,100280.28
2023-03-17T05:49:13.998Z,100282.47
2023-03-17T05:51:40.334Z,100282.19
2023-03-17T05:54:06.725Z,100278.88
2023-03-17T05:56:33.089Z,100266.31
2023-03-17T05:58:59.848Z,100271.16
2023-03-17T06:01:26.407Z,100284.28
2023-03-17T06:03:53.013Z,100273.53
2023-03-17T06:06:20.737Z,100269.91
2023-03-17T06:08:47.137Z,100275.63
2023-03-17T06:11:13.511Z,100271.34
2023-03-17T06:13:39.858Z,100285.72
2023-03-17T06:16:07.170Z,100285.00
2023-03-17T06:18:33.592Z,100277.44
2023-03-17T06:20:59.943Z,100291.97
2023-03-17T06:23:27.630Z,100292.00
2023-03-17T06:25:53.987Z,100294.25
2023-03-17T06:28:20.358Z,100287.78
2023-03-17T06:30:46.789Z,100285.34
2023-03-17T06:33:13.326Z,100281.59
2023-03-17T06:35:39.960Z,100278.53
2023-03-17T06:38:06.960Z,100275.06
2023-03-17T06:40:34.695Z,100274.75
2023-03-17T06:43:01.204Z,100275.53
2023-03-17T06:45:27.827Z,100270.97
2023-03-17T06:47:54.619Z,100281.19
2023-03-17T06:50:21.190Z,100288.78
2023-03-17T06:52:47.715Z,100282.84
2023-03-17T06:55:14.174Z,100296.38
2023-03-17T06:57:41.980Z,100307.56
2023-03-17T07:00:09.935Z,100298.19
2023-03-17T07:02:36.333Z,100301.19
2023-03-17T07:05:02.846Z,100288.09
2023-03-17T07:07:29.301Z,100287.31
2023-03-17T07:09:55.661Z,100290.91
2023-03-17T07:12:22.126Z,100285.56
2023-03-17T07:14:49.888Z,100278.72
2023-03-17T07:17:16.267Z,100274.50
2023-03-17T07:19:42.681Z,100280.19
2023-03-17T07:22:11.212Z,100279.56
2023-03-17T07:24:37.593Z,100279.19
2023-03-17T07:27:04.008Z,100282.25
2023-03-17T07:29:30.593Z,100277.44
2023-03-17T07:31:58.301Z,100268.22
2023-03-17T07:34:24.762Z,100272.38
2023-03-17T07:36:51.198Z,100272.97
2023-03-17T07:39:17.589Z,100266.56
2023-03-17T07:41:44.091Z,100272.88
2023-03-17T07:44:10.914Z,100272.38
2023-03-17T07:46:37.779Z,100277.00
2023-03-17T07:49:05.616Z,100279.91
2023-03-17T07:51:32.131Z,100282.56
2023-03-17T07:53:58.517Z,100274.88
2023-03-17T07:56:24.865Z,100287.31
2023-03-17T07:58:51.459Z,100267.41
2023-03-17T08:01:17.881Z,100260.22
2023-03-17T08:03:44.354Z,100254.25
2023-03-17T08:06:12.068Z,100258.25
2023-03-17T08:08:38.417Z,100253.91
2023-03-17T08:11:05.402Z,100244.13
2023-03-17T08:13:32.265Z,100244.06
2023-03-17T08:15:58.888Z,100251.28
2023-03-17T08:18:25.283Z,100266.97
2023-03-17T08:20:51.797Z,100261.59
2023-03-17T08:23:20.450Z,100256.28
2023-03-17T08:25:47.293Z,100254.06
2023-03-17T08:28:14.278Z,100264.09
2023-03-17T08:30:41.275Z,100270.72
2023-03-17T08:33:08.154Z,100279.31
2023-03-17T08:35:35.013Z,100285.88
2023-03-17T08:38:01.696Z,100275.69
2023-03-17T08:40:30.113Z,100267.84
2023-03-17T08:42:56.686Z,100262.91
2023-03-17T08:45:23.575Z,100273.34
2023-03-17T08:47:50.014Z,100275.25
2023-03-17T08:50:19.485Z,100266.50
2023-03-17T08:52:46.475Z,100263.38
2023-03-17T08:55:14.069Z,100268.22
2023-03-17T08:57:42.107Z,100260.06
2023-03-17T09:00:10.658Z,100251.38
2023-03-17T09:02:37.176Z,100244.41
2023-03-17T09:05:03.941Z,100237.31
2023-03-17T09:07:30.385Z,100230.88
2023-03-17T09:09:56.775Z,100242.75
2023-03-17T09:12:23.152Z,100225.41
2023-03-17T09:14:50.917Z,100229.22
2023-03-17T09:17:17.309Z,100229.97
2023-03-17T09:19:43.841Z,100218.47
2023-03-17T09:22:12.514Z,100219.28
2023-03-17T09:24:38.857Z,100218.47
2023-03-17T09:27:05.662Z,100223.03
2023-03-17T09:29:32.005Z,100217.75
2023-03-17T09:32:01.161Z,100212.91
2023-03-17T09:34:27.896Z,100218.00
2023-03-17T09:36:55.980Z,100219.19
2023-03-17T09:39:22.888Z,100223.44
2023-03-17T09:42:12.149Z,100227.03
2023-03-17T09:44:56.316Z,100239.66
2023-03-17T09:47:48.579Z,100235.38
2023-03-17T09:50:19.004Z,100242.91
2023-03-17T09:52:45.538Z,100240.13
2023-03-17T09:55:19.963Z,100247.81
2023-03-17T09:57:47.456Z,100247.69
2023-03-17T10:00:16.853Z,100243.25
2023-03-17T10:02:45.556Z,100246.59
2023-03-17T10:05:18.920Z,100244.22
2023-03-17T10:07:53.009Z,100249.09
2023-03-17T10:10:25.639Z,100246.50
2023-03-17T10:13:02.630Z,100240.56
2023-03-17T10:15:34.781Z,100231.28
2023-03-17T10:18:08.480Z,100238.13
2023-03-17T10:20:38.097Z,100227.91
2023-03-17T10:23:09.940Z,100224.53
2023-03-17T10:25:36.694Z,100238.22
2023-03-17T10:28:09.027Z,100239.00
2023-03-17T10:30:35.644Z,100236.53
2023-03-17T10:33:05.122Z,100234.09
2023-03-17T10:35:31.956Z,100236.53
2023-03-17T10:38:13.499Z,100238.28
2023-03-17T10:40:40.884Z,100235.25
2023-03-17T10:43:13.971Z,100244.47
2023-03-17T10:45:54.129Z,100232.75
2023-03-17T10:48:21.843Z,100224.84
2023-03-17T10:50:49.578Z,100221.72
2023-03-17T10:53:20.681Z,100233.13
2023-03-17T10:55:49.752Z,100224.59
2023-03-17T10:58:18.345Z,100221.09
2023-03-17T11:00:55.584Z,100217.63
2023-03-17T11:03:25.795Z,100221.22
2023-03-17T11:05:56.818Z,100230.69
2023-03-17T11:08:23.670Z,100230.84
2023-03-17T11:10:55.098Z,100228.56
2023-03-17T11:13:21.563Z,100216.53
2023-03-17T11:15:52.908Z,100219.66
2023-03-17T11:18:23.303Z,100223.78
2023-03-17T11:20:56.691Z,100219.41
2023-03-17T11:23:37.871Z,100210.47
2023-03-17T11:26:16.873Z,100211.50
2023-03-17T11:28:50.386Z,100215.91
2023-03-17T11:31:22.605Z,100211.53
2023-03-17T11:33:57.859Z,100199.69
2023-03-17T11:36:42.242Z,100193.00
2023-03-17T11:39:12.587Z,100196.78
2023-03-17T11:41:49.453Z,100198.63
2023-03-17T11:44:43.067Z,100192.53
2023-03-17T11:47:22.336Z,100172.97
2023-03-17T11:49:54.032Z,100173.63
2023-03-17T11:52:28.063Z,100175.97
2023-03-17T11:55:04.630Z,100168.00
2023-03-17T11:57:35.003Z,100175.75
2023-03-17T12:00:09.068Z,100176.06
2023-03-17T12:02:40.626Z,100171.72
2023-03-17T12:05:11.140Z,100178.13
2023-03-17T12:07:43.135Z,100184.44
2023-03-17T12:10:19.190Z,100180.16
2023-03-17T12:12:49.841Z,100181.00
2023-03-17T12:15:20.832Z,100177.38
2023-03-17T12:17:54.054Z,100178.47
2023-03-17T12:20:29.952Z,100175.56
2023-03-17T12:23:02.502Z,100162.13
2023-03-17T12:25:32.291Z,100158.69
2023-03-17T12:28:03.055Z,100164.00
2023-03-17T12:30:33.614Z,100158.22
2023-03-17T12:33:15.611Z,100153.31
2023-03-17T12:35:42.130Z,100153.41
2023-03-17T12:38:13.521Z,100153.06
2023-03-17T12:40:57.730Z,100151.31
2023-03-17T12:43:36.635Z,100161.25
2023-03-17T12:46:26.949Z,100151.22
2023-03-17T12:49:14.741Z,100145.97
2023-03-17T12:51:57.745Z,100145.16
2023-03-17T12:54:28.793Z,100144.56
2023-03-17T12:57:02.039Z,100139.47
2023-03-17T12:59:28.585Z,100154.44
2023-03-17T13:01:56.442Z,100154.22
2023-03-17T13:04:27.138Z,100139.44
2023-03-17T13:06:59.782Z,100149.31
2023-03-17T13:09:33.869Z,100135.66
2023-03-17T13:12:02.174Z,100128.72
2023-03-17T13:14:40.691Z,100133.50
2023-03-17T13:17:31.160Z,100125.22
2023-03-17T13:20:11.315Z,100124.53
2023-03-17T13:22:39.366Z,100128.28
2023-03-17T13:25:25.916Z,100126.97
2023-03-17T13:27:52.372Z,100121.50
2023-03-17T13:30:53.886Z,100122.06
2023-03-17T13:33:21.489Z,100122.44
2023-03-17T13:36:03.018Z,100120.59
2023-03-17T13:39:15.133Z,100120.16
2023-03-17T13:41:51.806Z,100127.66
2023-03-17T13:44:46.145Z,100120.16
2023-03-17T13:47:25.768Z,100120.78
2023-03-17T13:49:54.829Z,100104.34
2023-03-17T13:52:27.555Z,100104.44
2023-03-17T13:55:01.501Z,100103.19
2023-03-17T13:57:30.293Z,100104.63
2023-03-17T14:00:03.290Z,100103.09
2023-03-17T14:02:32.748Z,100104.06
2023-03-17T14:05:00.799Z,100094.44
2023-03-17T14:07:31.091Z,100094.25
2023-03-17T14:09:59.372Z,100090.00
2023-03-17T14:12:33.003Z,100087.25
2023-03-17T14:15:02.463Z,100082.81
2023-03-17T14:17:32.853Z,100073.78
2023-03-17T14:20:01.154Z,100077.03
2023-03-17T14:22:28.129Z,100073.06
2023-03-17T14:24:55.771Z,100076.16
2023-03-17T14:27:24.108Z,100078.16
2023-03-17T14:29:51.990Z,100081.03
2023-03-17T14:32:20.431Z,100090.97
2023-03-17T14:34:48.419Z,100085.56
2023-03-17T14:37:15.819Z,100087.44
2023-03-17T14:39:48.322Z,100077.69
2023-03-17T14:42:18.142Z,100081.47
2023-03-17T14:44:44.522Z,100075.97
2023-03-17T14:47:19.307Z,100060.31
2023-03-17T14:49:46.338Z,100062.41
2023-03-17T14:52:19.992Z,100062.06
2023-03-17T14:54:49.151Z,100062.75
2023-03-17T14:57:16.141Z,100053.78
2023-03-17T14:59:44.134Z,100051.22
2023-03-17T15:02:31.696Z,100047.53
2023-03-17T15:05:01.442Z,100051.72
2023-03-17T15:07:31.773Z,100049.91
2023-03-17T15:09:59.027Z,100056.44
2023-03-17T15:12:26.400Z,100053.28
2023-03-17T15:14:56.170Z,100054.34
2023-03-17T15:17:28.552Z,100038.38
2023-03-17T15:19:57.335Z,100044.72
2023-03-17T15:22:26.434Z,100056.31
2023-03-17T15:24:59.554Z,100042.59
2023-03-17T15:27:26.207Z,100051.44
2023-03-17T15:29:52.581Z,100046.75
2023-03-17T15:32:22.018Z,100045.84
2023-03-17T15:34:51.345Z,100043.59
2023-03-17T15:37:20.058Z,100044.31
2023-03-17T15:39:47.270Z,100056.41
2023-03-17T15:42:13.826Z,100047.13
2023-03-17T15:44:40.237Z,100046.81
2023-03-17T15:47:06.776Z,100036.84
2023-03-17T15:49:33.189Z,100036.56
2023-03-17T15:52:00.881Z,100033.81
2023-03-17T15:54:27.254Z,100029.47
2023-03-17T15:56:53.658Z,100033.72
2023-03-17T15:59:20.018Z,100033.00
2023-03-17T16:01:46.501Z,100035.06
2023-03-17T16:04:13.023Z,100029.59
2023-03-17T16:06:39.458Z,100034.75
2023-03-17T16:09:14.741Z,100037.31
2023-03-17T16:11:41.112Z,100036.13
2023-03-17T16:14:07.604Z,100027.53
2023-03-17T16:16:37.493Z,100022.44
2023-03-17T16:19:05.594Z,100015.19
2023-03-17T16:21:32.161Z,100015.53
2023-03-17T16:23:58.657Z,100024.72
2023-03-17T16:26:26.408Z,100020.69
2023-03-17T16:28:52.808Z,100008.09
2023-03-17T16:31:25.481Z,100013.94
2023-03-17T16:33:54.822Z,100016.75
2023-03-17T16:36:23.133Z,100028.53
2023-03-17T16:38:50.617Z,100025.84
2023-03-17T16:41:19.852Z,100019.34
2023-03-17T16:43:50.617Z,100012.56
2023-03-17T16:46:19.138Z,100021.41
2023-03-17T16:48:45.568Z,100026.19
2023-03-17T16:51:11.970Z,100027.69
2023-03-17T16:53:38.323Z,100021.63
2023-03-17T16:56:09.671Z,100031.66
2023-03-17T16:58:36.107Z,100026.19
2023-03-17T17:01:10.999Z,100023.34
2023-03-17T17:03:37.622Z,100028.00
2023-03-17T17:06:04.639Z,100028.44
2023-03-17T17:08:31.139Z,100032.59
2023-03-17T17:10:57.561Z,100031.78
2023-03-17T17:13:23.936Z,100028.31
2023-03-17T17:15:50.384Z,100032.16
2023-03-17T17:18:20.287Z,100043.44
2023-03-17T17:20:46.659Z,100040.06
2023-03-17T17:23:15.339Z,100040.53
2023-03-17T17:25:42.566Z,100045.41
2023-03-17T17:28:09.889Z,100048.91
2023-03-17T17:30:36.413Z,100050.06
2023-03-17T17:33:04.202Z,100052.63
2023-03-17T17:35:33.149Z,100065.78
2023-03-17T17:38:00.428Z,100071.91
2023-03-17T17:40:27.196Z,100071.59
2023-03-17T17:42:54.821Z,100079.38
2023-03-17T17:45:22.252Z,100089.22
2023-03-17T17:47:49.077Z,100093.91
2023-03-17T17:50:18.996Z,100091.78
2023-03-17T17:52:47.860Z,100087.47
2023-03-17T17:55:14.478Z,100092.50
2023-03-17T17:57:40.881Z,100098.78
2023-03-17T18:00:08.876Z,100093.56
2023-03-17T18:02:35.433Z,100095.22
2023-03-17T18:05:02.049Z,100096.72
2023-03-17T18:07:28.679Z,100100.22
2023-03-17T18:09:56.378Z,100103.84
2023-03-17T18:12:22.738Z,100092.03
2023-03-17T18:14:49.164Z,100084.69
2023-03-17T18:17:15.531Z,100078.09
2023-03-17T18:19:41.900Z,100072.16
2023-03-17T18:22:08.309Z,100065.06
2023-03-17T18:24:34.702Z,100070.66
2023-03-17T18:27:02.403Z,100063.44
2023-03-17T18:29:28.771Z,100050.84
2023-03-17T18:31:55.258Z,100049.13
2023-03-17T18:34:23.951Z,100048.78
2023-03-17T18:36:51.390Z,100034.56
2023-03-17T18:39:17.886Z,100026.09
2023-03-17T18:41:44.578Z,100060.22
2023-03-17T18:44:12.257Z,100068.28
2023-03-17T18:46:39.044Z,100058.13
2023-03-17T18:49:05.950Z,100070.91
2023-03-17T18:51:32.871Z,100062.75
2023-03-17T18:53:59.361Z,100058.81
2023-03-17T18:56:25.902Z,100067.31
2023-03-17T18:58:52.261Z,100073.59
2023-03-17T19:01:20.092Z,100067.75
2023-03-17T19:03:46.491Z,100064.41
2023-03-17T19:06:15.184Z,100068.59
2023-03-17T19:08:42.338Z,100067.66
2023-03-17T19:11:10.233Z,100073.59
2023-03-17T19:13:37.238Z,100065.56
2023-03-17T19:16:04.924Z,100059.38
2023-03-17T19:18:32.804Z,100038.56
2023-03-17T19:20:59.676Z,100041.03
2023-03-17T19:23:26.130Z,100039.59
2023-03-17T19:25:52.703Z,100036.25
2023-03-17T19:28:19.187Z,100043.41
2023-03-17T19:30:45.894Z,100037.25
2023-03-17T19:33:12.788Z,100027.34
2023-03-17T19:35:41.309Z,100030.63
2023-03-17T19:38:07.766Z,100024.59
2023-03-17T19:40:34.214Z,100025.94
2023-03-17T19:43:00.691Z,100010.84
2023-03-17T19:45:27.137Z,100011.63
2023-03-17T19:47:53.593Z,100018.53
2023-03-17T19:50:19.952Z,100011.75
2023-03-17T19:52:47.665Z,100021.78
2023-03-17T19:55:14.312Z,100026.22
2023-03-17T19:57:40.716Z,100036.91
2023-03-17T20:00:08.761Z,100033.19
2023-03-17T20:02:35.160Z,100044.03
2023-03-17T20:05:01.543Z,100045.19
2023-03-17T20:07:28.002Z,100034.19
2023-03-17T20:09:55.713Z,100041.25
2023-03-17T20:12:22.692Z,100039.28
2023-03-17T20:14:49.293Z,100048.13
2023-03-17T20:17:15.645Z,100060.81
2023-03-17T20:19:42.032Z,100061.81
2023-03-17T20:22:08.673Z,100065.31
2023-03-17T20:24:35.491Z,100081.28
2023-03-17T20:27:03.634Z,100079.03
2023-03-17T20:29:30.062Z,100064.66
2023-03-17T20:31:56.449Z,100069.84
2023-03-17T20:34:23.346Z,100071.81
2023-03-17T20:36:49.809Z,100059.91
2023-03-17T20:39:16.194Z,100076.44
2023-03-17T20:41:42.621Z,100071.19
2023-03-17T20:44:10.340Z,100064.63
2023-03-17T20:46:36.724Z,100079.09
2023-03-17T20:49:03.175Z,100089.72
2023-03-17T20:51:30.156Z,100097.78
2023-03-17T20:53:56.529Z,100101.09
2023-03-17T20:56:24.444Z,100108.53
2023-03-17T20:58:51.413Z,100114.72
2023-03-17T21:01:21.196Z,100098.09
2023-03-17T21:03:48.387Z,100087.88
2023-03-17T21:06:14.869Z,100080.84
2023-03-17T21:08:41.239Z,100079.63
2023-03-17T21:11:08.945Z,100078.69
2023-03-17T21:13:36.060Z,100067.53
2023-03-17T21:16:02.749Z,100070.22
2023-03-17T21:18:30.540Z,100067.88
2023-03-17T21:20:56.951Z,100059.25
2023-03-17T21:23:23.341Z,100041.19
2023-03-17T21:25:53.736Z,100053.34
2023-03-17T21:28:20.111Z,100067.56
2023-03-17T21:30:46.458Z,100080.97
2023-03-17T21:33:12.802Z,100075.16
2023-03-17T21:35:40.595Z,100075.28
2023-03-17T21:38:07.050Z,100073.63
2023-03-17T21:40:33.863Z,100059.88
2023-03-17T21:43:00.320Z,100058.66
2023-03-17T21:45:26.802Z,100070.50
2023-03-17T21:47:53.421Z,100066.25
2023-03-17T21:50:20.745Z,100065.53
2023-03-17T21:52:48.463Z,100070.91
2023-03-17T21:55:14.877Z,100079.69
2023-03-17T21:57:41.708Z,100085.19
2023-03-17T22:00:09.537Z,100078.59
2023-03-17T22:02:36.018Z,100081.56
2023-03-17T22:05:02.780Z,100067.78
2023-03-17T22:07:29.320Z,100065.97
2023-03-17T22:09:57.193Z,100072.59
2023-03-17T22:12:23.813Z,100082.06
2023-03-17T22:14:50.982Z,100076.59
2023-03-17T22:17:17.369Z,100082.06
2023-03-17T22:19:43.754Z,100088.91
2023-03-17T22:22:10.445Z,100087.28
2023-03-17T22:24:36.931Z,100094.25
2023-03-17T22:27:05.199Z,100092.75
2023-03-17T22:29:31.588Z,100090.44
2023-03-17T22:31:58.138Z,100085.47
2023-03-17T22:34:24.674Z,100090.38
2023-03-17T22:36:51.034Z,100094.38
2023-03-17T22:39:17.658Z,100095.97
2023-03-17T22:41:44.109Z,100100.00
2023-03-17T22:44:12.182Z,100101.28
2023-03-17T22:46:39.015Z,100104.13
2023-03-17T22:49:11.464Z,100108.56
2023-03-17T22:51:38.255Z,100108.84
2023-03-17T22:54:04.705Z,100114.53
2023-03-17T22:56:31.512Z,100109.88
2023-03-17T22:58:57.854Z,100104.44
2023-03-17T23:01:25.921Z,100105.50
2023-03-17T23:03:53.095Z,100105.34
2023-03-17T23:06:20.300Z,100096.59
2023-03-17T23:08:46.835Z,100103.44
2023-03-17T23:11:15.682Z,100110.41
2023-03-17T23:13:42.017Z,100105.16
2023-03-17T23:16:09.020Z,100099.94
2023-03-17T23:18:36.733Z,100093.94
2023-03-17T23:21:04.941Z,100085.75
2023-03-17T23:23:31.344Z,100088.16
2023-03-17T23:25:57.829Z,100088.25
2023-03-17T23:28:24.345Z,100093.97
2023-03-17T23:30:51.002Z,100099.56
2023-03-17T23:33:17.943Z,100095.28
2023-03-17T23:35:45.640Z,100094.22
2023-03-17T23:38:12.035Z,100089.16
2023-03-17T23:40:38.437Z,100096.97
2023-03-17T23:43:04.916Z,100096.19
2023-03-17T23:45:31.566Z,100102.78
2023-03-17T23:47:57.944Z,100105.09
2023-03-17T23:50:24.358Z,100099.13
2023-03-17T23:52:52.028Z,100102.44
2023-03-17T23:55:18.434Z,100101.19
2023-03-17T23:57:45.166Z,100099.13
